Superferry II — SWKV — position and weather

sailwx.info

Track history (hours):
 
Tides and Currents Weather Stations Pressure Air Temp Water Temp Dewpoint Dewpoint Depression Visibility Wind Speed Wind Dir Waves Ship Positions

Superferry II

Last reported at 2016-Feb-03 17:08 UTC. Time now 2016-Feb-07 03:42 UTC.
Position N 38°01' E 024°01'.

Length 122 m; draft 4.7 m.

Type: Passenger vessel. MMSI: 237001000.

Date/timePositionNaut miles runAvg speedWind from/ knotsBaromVisibWave heightAir tempDewpointWater temp
2016-Feb-03 17:08N 38°01' E 024°01'5013.9
2016-Feb-03 13:33N 37°40' E 024°57'1212.1
2016-Feb-03 12:34N 37°32' E 025°09'9 9.0
2016-Feb-03 11:33N 37°28' E 025°19'2 1.8
2016-Feb-03 10:33N 37°28' E 025°17'1312.7
2016-Feb-03 09:33N 37°35' E 025°04'4915.3
2016-Feb-03 06:23N 37°59' E 024°10'8 9.0
2016-Feb-03 05:32N 38°01' E 024°01'0 0.0
2016-Feb-03 04:29N 38°01' E 024°01'0 0.0
2016-Feb-03 03:29N 38°01' E 024°01'0 0.0
2016-Feb-03 02:32N 38°01' E 024°01'0 0.0
2016-Feb-03 01:33N 38°01' E 024°01'0 0.0
2016-Feb-03 00:33N 38°01' E 024°01'0 0.0
2016-Feb-02 23:33N 38°01' E 024°01'0 0.0
2016-Feb-02 22:32N 38°01' E 024°01'0 0.0
2016-Feb-02 21:16N 38°01' E 024°01'0 0.0
2016-Feb-02 20:32N 38°01' E 024°01'0 0.0
2016-Feb-02 19:25N 38°01' E 024°01'0 0.0
2016-Feb-02 18:31N 38°01' E 024°01'0 0.0
2016-Feb-02 17:30N 38°01' E 024°01'5 5.0
2016-Feb-02 16:33N 38°00' E 024°07'4314.3
2016-Feb-02 13:33N 37°41' E 024°55'1414.5
2016-Feb-02 12:33N 37°32' E 025°09'9 9.1
2016-Feb-02 11:34N 37°28' E 025°19'2 1.8
2016-Feb-02 10:33N 37°28' E 025°17'1313.4
2016-Feb-02 09:33N 37°35' E 025°03'4915.3
2016-Feb-02 06:21N 37°59' E 024°09'7 1.3
2016-Feb-02 01:10N 38°01' E 024°01'2 0.2
2016-Feb-01 16:33N 38°01' E 024°03'4414.9
2016-Feb-01 13:33N 37°42' E 024°54'1615.7
2016-Feb-01 12:34N 37°32' E 025°09'9 9.1
2016-Feb-01 11:33N 37°28' E 025°19'0 0.0
2016-Feb-01 10:33N 37°28' E 025°19'1211.6
2016-Feb-01 09:34N 37°33' E 025°06'5115.8
2016-Feb-01 06:20N 37°59' E 024°11'7 0.5
2016-Jan-31 16:32N 38°01' E 024°02'4515.2
2016-Jan-31 13:33N 37°42' E 024°54'1616.1
2016-Jan-31 12:33N 37°32' E 025°09'9 9.1
2016-Jan-31 11:33N 37°28' E 025°19'7 6.5
2016-Jan-31 10:33N 37°30' E 025°12'1010.2
2016-Jan-31 09:33N 37°36' E 025°01'4615.1
2016-Jan-31 06:31N 37°59' E 024°11'  
2016-Jan-26 16:28N 38°01' E 024°03'4515.3
2016-Jan-26 13:34N 37°42' E 024°54'1615.7
2016-Jan-26 12:33N 37°32' E 025°09'9 9.2
2016-Jan-26 11:33N 37°28' E 025°20'0 0.0
2016-Jan-26 10:33N 37°28' E 025°20'1212.0
2016-Jan-26 09:34N 37°33' E 025°06'5115.8
2016-Jan-26 06:18N 37°59' E 024°10'7 0.5
2016-Jan-25 16:28N 38°01' E 024°02'4415.2
2016-Jan-25 13:33N 37°43' E 024°53'1716.7
2016-Jan-25 12:33N 37°32' E 025°09'9 9.1
2016-Jan-25 11:33N 37°28' E 025°19'0 0.0
2016-Jan-25 10:34N 37°28' E 025°19'1110.6
2016-Jan-25 09:33N 37°33' E 025°07'5116.0
2016-Jan-25 06:21N 37°59' E 024°11'  
Track history (hours):
 
Tides and Currents Weather Stations Pressure Air Temp Water Temp Dewpoint Dewpoint Depression Visibility Wind Speed Wind Dir Waves Ship Positions

Superferry II

Last reported at 2016-Feb-03 17:08 UTC. Time now 2016-Feb-07 03:42 UTC.
Position N 38°01' E 024°01'.

Length 122 m; draft 4.7 m.

Type: Passenger vessel. MMSI: 237001000.

Date/timePositionNaut miles runAvg speedWind from/ knotsBaromVisibWave heightAir tempDewpointWater temp
2016-Feb-03 17:08N 38°01' E 024°01'5013.9
2016-Feb-03 13:33N 37°40' E 024°57'1212.1
2016-Feb-03 12:34N 37°32' E 025°09'9 9.0
2016-Feb-03 11:33N 37°28' E 025°19'2 1.8
2016-Feb-03 10:33N 37°28' E 025°17'1312.7
2016-Feb-03 09:33N 37°35' E 025°04'4915.3
2016-Feb-03 06:23N 37°59' E 024°10'8 9.0
2016-Feb-03 05:32N 38°01' E 024°01'0 0.0
2016-Feb-03 04:29N 38°01' E 024°01'0 0.0
2016-Feb-03 03:29N 38°01' E 024°01'0 0.0
2016-Feb-03 02:32N 38°01' E 024°01'0 0.0
2016-Feb-03 01:33N 38°01' E 024°01'0 0.0
2016-Feb-03 00:33N 38°01' E 024°01'0 0.0
2016-Feb-02 23:33N 38°01' E 024°01'0 0.0
2016-Feb-02 22:32N 38°01' E 024°01'0 0.0
2016-Feb-02 21:16N 38°01' E 024°01'0 0.0
2016-Feb-02 20:32N 38°01' E 024°01'0 0.0
2016-Feb-02 19:25N 38°01' E 024°01'0 0.0
2016-Feb-02 18:31N 38°01' E 024°01'0 0.0
2016-Feb-02 17:30N 38°01' E 024°01'5 5.0
2016-Feb-02 16:33N 38°00' E 024°07'4314.3
2016-Feb-02 13:33N 37°41' E 024°55'1414.5
2016-Feb-02 12:33N 37°32' E 025°09'9 9.1
2016-Feb-02 11:34N 37°28' E 025°19'2 1.8
2016-Feb-02 10:33N 37°28' E 025°17'1313.4
2016-Feb-02 09:33N 37°35' E 025°03'4915.3
2016-Feb-02 06:21N 37°59' E 024°09'7 1.3
2016-Feb-02 01:10N 38°01' E 024°01'2 0.2
2016-Feb-01 16:33N 38°01' E 024°03'4414.9
2016-Feb-01 13:33N 37°42' E 024°54'1615.7
2016-Feb-01 12:34N 37°32' E 025°09'9 9.1
2016-Feb-01 11:33N 37°28' E 025°19'0 0.0
2016-Feb-01 10:33N 37°28' E 025°19'1211.6
2016-Feb-01 09:34N 37°33' E 025°06'5115.8
2016-Feb-01 06:20N 37°59' E 024°11'7 0.5
2016-Jan-31 16:32N 38°01' E 024°02'4515.2
2016-Jan-31 13:33N 37°42' E 024°54'1616.1
2016-Jan-31 12:33N 37°32' E 025°09'9 9.1
2016-Jan-31 11:33N 37°28' E 025°19'7 6.5
2016-Jan-31 10:33N 37°30' E 025°12'1010.2
2016-Jan-31 09:33N 37°36' E 025°01'4615.1
2016-Jan-31 06:31N 37°59' E 024°11'  
2016-Jan-26 16:28N 38°01' E 024°03'4515.3
2016-Jan-26 13:34N 37°42' E 024°54'1615.7
2016-Jan-26 12:33N 37°32' E 025°09'9 9.2
2016-Jan-26 11:33N 37°28' E 025°20'0 0.0
2016-Jan-26 10:33N 37°28' E 025°20'1212.0
2016-Jan-26 09:34N 37°33' E 025°06'5115.8
2016-Jan-26 06:18N 37°59' E 024°10'7 0.5
2016-Jan-25 16:28N 38°01' E 024°02'4415.2
2016-Jan-25 13:33N 37°43' E 024°53'1716.7
2016-Jan-25 12:33N 37°32' E 025°09'9 9.1
2016-Jan-25 11:33N 37°28' E 025°19'0 0.0
2016-Jan-25 10:34N 37°28' E 025°19'1110.6
2016-Jan-25 09:33N 37°33' E 025°07'5116.0
2016-Jan-25 06:21N 37°59' E 024°11'  

Dump ship's entire track history